createdAt,value
2022-09-15T00:00:32.385Z,18.20
2022-09-15T00:02:59.672Z,18.20
2022-09-15T00:05:26.835Z,18.30
2022-09-15T00:07:55.772Z,18.40
2022-09-15T00:10:22.902Z,18.40
2022-09-15T00:12:50.165Z,18.40
2022-09-15T00:15:17.538Z,18.50
2022-09-15T00:17:49.776Z,18.50
2022-09-15T00:20:19.426Z,18.50
2022-09-15T00:22:47.477Z,18.60
2022-09-15T00:25:15.380Z,18.60
2022-09-15T00:27:42.512Z,19.40
2022-09-15T00:30:10.032Z,18.50
2022-09-15T00:32:37.275Z,18.50
2022-09-15T00:35:05.098Z,18.40
2022-09-15T00:37:33.080Z,18.40
2022-09-15T00:40:00.347Z,18.40
2022-09-15T00:42:27.546Z,18.40
2022-09-15T00:45:00.655Z,18.40
2022-09-15T00:47:34.352Z,18.30
2022-09-15T00:50:13.635Z,18.30
2022-09-15T00:52:54.815Z,18.20
2022-09-15T00:55:39.341Z,18.10
2022-09-15T00:58:13.563Z,17.90
2022-09-15T01:01:10.747Z,17.90
2022-09-15T01:03:38.073Z,17.80
2022-09-15T01:06:13.686Z,17.70
2022-09-15T01:09:16.114Z,17.60
2022-09-15T01:11:43.276Z,17.60
2022-09-15T01:14:11.259Z,17.60
2022-09-15T01:16:50.115Z,17.50
2022-09-15T01:19:20.233Z,17.50
2022-09-15T01:22:17.451Z,17.50
2022-09-15T01:24:56.490Z,17.50
2022-09-15T01:27:43.102Z,17.40
2022-09-15T01:30:20.488Z,17.40
2022-09-15T01:33:05.678Z,17.40
2022-09-15T01:35:52.963Z,17.40
2022-09-15T01:38:43.905Z,17.40
2022-09-15T01:41:17.880Z,17.40
2022-09-15T01:44:08.841Z,17.40
2022-09-15T01:46:40.471Z,17.50
2022-09-15T01:49:10.985Z,17.50
2022-09-15T01:51:40.667Z,17.50
2022-09-15T01:54:08.790Z,17.50
2022-09-15T01:56:38.699Z,17.50
2022-09-15T01:59:06.183Z,17.60
2022-09-15T02:01:43.729Z,17.60
2022-09-15T02:04:18.144Z,17.60
2022-09-15T02:06:56.169Z,17.60
2022-09-15T02:09:36.928Z,17.60
2022-09-15T02:12:33.791Z,17.60
2022-09-15T02:15:07.900Z,17.60
2022-09-15T02:17:38.924Z,17.60
2022-09-15T02:20:17.698Z,17.60
2022-09-15T02:22:52.127Z,17.70
2022-09-15T02:25:28.834Z,17.70
2022-09-15T02:28:02.509Z,17.70
2022-09-15T02:30:32.339Z,17.70
2022-09-15T02:33:03.927Z,17.70
2022-09-15T02:35:34.878Z,17.80
2022-09-15T02:38:05.454Z,17.70
2022-09-15T02:40:33.256Z,17.70
2022-09-15T02:43:02.215Z,17.70
2022-09-15T02:45:31.330Z,17.80
2022-09-15T02:47:58.987Z,17.70
2022-09-15T02:50:26.804Z,17.70
2022-09-15T02:52:55.428Z,17.70
2022-09-15T02:55:23.728Z,17.80
2022-09-15T02:57:50.862Z,17.80
2022-09-15T03:00:19.962Z,17.80
2022-09-15T03:02:50.148Z,17.80
2022-09-15T03:05:19.799Z,17.80
2022-09-15T03:07:47.199Z,17.30
2022-09-15T03:10:14.680Z,17.80
2022-09-15T03:12:45.804Z,17.80
2022-09-15T03:15:14.955Z,17.80
2022-09-15T03:17:43.269Z,17.80
2022-09-15T03:20:12.585Z,17.70
2022-09-15T03:22:39.846Z,17.80
2022-09-15T03:25:07.838Z,17.80
2022-09-15T03:27:35.593Z,18.10
2022-09-15T03:30:04.200Z,17.80
2022-09-15T03:32:31.434Z,17.80
2022-09-15T03:34:59.106Z,17.70
2022-09-15T03:37:26.607Z,17.80
2022-09-15T03:39:53.818Z,17.80
2022-09-15T03:42:21.354Z,17.80
2022-09-15T03:44:48.491Z,17.80
2022-09-15T03:47:15.717Z,17.80
2022-09-15T03:49:42.934Z,17.80
2022-09-15T03:52:10.078Z,17.80
2022-09-15T03:54:37.228Z,17.80
2022-09-15T03:57:04.593Z,17.80
2022-09-15T03:59:31.778Z,17.70
2022-09-15T04:01:59.017Z,17.80
2022-09-15T04:04:26.292Z,17.70
2022-09-15T04:06:53.417Z,17.80
2022-09-15T04:09:21.415Z,17.70
2022-09-15T04:11:48.635Z,17.70
2022-09-15T04:14:15.882Z,17.70
2022-09-15T04:16:43.022Z,17.70
2022-09-15T04:19:10.633Z,17.70
2022-09-15T04:21:37.765Z,17.70
2022-09-15T04:24:05.837Z,17.70
2022-09-15T04:26:35.768Z,17.60
2022-09-15T04:29:05.101Z,17.50
2022-09-15T04:31:33.399Z,17.60
2022-09-15T04:34:00.911Z,17.60
2022-09-15T04:36:29.323Z,17.60
2022-09-15T04:38:58.041Z,17.60
2022-09-15T04:41:26.818Z,17.60
2022-09-15T04:43:54.154Z,17.60
2022-09-15T04:46:21.556Z,17.60
2022-09-15T04:48:49.282Z,17.60
2022-09-15T04:51:22.503Z,17.70
2022-09-15T04:53:50.146Z,17.70
2022-09-15T04:56:20.111Z,17.70
2022-09-15T04:58:49.937Z,17.80
2022-09-15T05:01:28.326Z,17.80
2022-09-15T05:03:56.058Z,17.80
2022-09-15T05:06:25.637Z,17.80
2022-09-15T05:08:55.158Z,17.80
2022-09-15T05:11:23.570Z,17.70
2022-09-15T05:13:50.901Z,17.70
2022-09-15T05:16:21.528Z,17.70
2022-09-15T05:18:50.570Z,15.40
2022-09-15T05:21:19.848Z,17.70
2022-09-15T05:23:47.902Z,17.70
2022-09-15T05:26:21.266Z,17.70
2022-09-15T05:28:48.393Z,17.60
2022-09-15T05:31:21.004Z,17.60
2022-09-15T05:33:49.729Z,17.60
2022-09-15T05:36:19.165Z,17.60
2022-09-15T05:38:46.614Z,17.60
2022-09-15T05:41:16.869Z,17.60
2022-09-15T05:43:48.490Z,17.60
2022-09-15T05:46:17.346Z,17.60
2022-09-15T05:48:45.647Z,17.60
2022-09-15T05:51:13.402Z,17.60
2022-09-15T05:53:40.734Z,17.70
2022-09-15T05:56:11.977Z,17.60
2022-09-15T05:58:44.630Z,17.60
2022-09-15T06:01:16.588Z,17.70
2022-09-15T06:03:44.247Z,17.80
2022-09-15T06:06:12.148Z,17.90
2022-09-15T06:08:47.815Z,18.10
2022-09-15T06:11:21.001Z,18.30
2022-09-15T06:13:48.810Z,18.40
2022-09-15T06:16:21.412Z,18.40
2022-09-15T06:18:50.134Z,18.50
2022-09-15T06:21:22.881Z,18.50
2022-09-15T06:24:01.854Z,18.50
2022-09-15T06:26:29.923Z,18.40
2022-09-15T06:29:00.330Z,18.30
2022-09-15T06:31:28.980Z,18.30
2022-09-15T06:33:57.643Z,18.40
2022-09-15T06:36:28.378Z,18.50
2022-09-15T06:38:56.834Z,18.60
2022-09-15T06:41:23.975Z,18.80
2022-09-15T06:43:51.290Z,18.90
2022-09-15T06:46:21.551Z,19.00
2022-09-15T06:48:49.331Z,19.10
2022-09-15T06:51:18.345Z,19.10
2022-09-15T06:53:46.016Z,19.00
2022-09-15T06:56:23.391Z,19.00
2022-09-15T06:58:51.117Z,18.90
2022-09-15T07:01:28.047Z,19.00
2022-09-15T07:03:56.966Z,18.90
2022-09-15T07:06:25.003Z,19.00
2022-09-15T07:08:53.800Z,19.30
2022-09-15T07:11:21.230Z,19.40
2022-09-15T07:13:49.127Z,19.60
2022-09-15T07:16:18.095Z,19.80
2022-09-15T07:18:46.315Z,19.80
2022-09-15T07:21:19.696Z,19.90
2022-09-15T07:23:47.769Z,20.00
2022-09-15T07:26:16.008Z,20.10
2022-09-15T07:28:47.924Z,20.10
2022-09-15T07:31:17.092Z,20.20
2022-09-15T07:33:44.530Z,20.00
2022-09-15T07:36:12.190Z,19.90
2022-09-15T07:38:41.560Z,20.00
2022-09-15T07:41:23.817Z,20.00
2022-09-15T07:43:53.095Z,19.90
2022-09-15T07:46:21.981Z,19.90
2022-09-15T07:48:51.093Z,20.10
2022-09-15T07:51:18.974Z,20.20
2022-09-15T07:53:47.907Z,20.10
2022-09-15T07:56:19.352Z,20.10
2022-09-15T07:58:47.808Z,20.10
2022-09-15T08:01:16.239Z,20.00
2022-09-15T08:03:51.749Z,19.90
2022-09-15T08:06:22.514Z,19.90
2022-09-15T08:08:52.281Z,20.00
2022-09-15T08:11:21.611Z,19.90
2022-09-15T08:13:50.172Z,19.90
2022-09-15T08:16:20.144Z,20.00
2022-09-15T08:18:48.084Z,20.30
2022-09-15T08:21:20.097Z,20.60
2022-09-15T08:23:52.428Z,20.60
2022-09-15T08:26:19.728Z,20.60
2022-09-15T08:28:47.114Z,20.50
2022-09-15T08:31:14.942Z,20.50
2022-09-15T08:33:54.275Z,20.40
2022-09-15T08:36:21.751Z,20.20
2022-09-15T08:38:49.570Z,20.40
2022-09-15T08:41:25.515Z,20.30
2022-09-15T08:43:58.221Z,20.60
2022-09-15T08:46:47.402Z,20.70
2022-09-15T08:49:47.821Z,20.60
2022-09-15T08:52:30.070Z,20.90
2022-09-15T08:55:01.084Z,21.40
2022-09-15T08:57:28.268Z,21.70
2022-09-15T08:59:58.987Z,21.90
2022-09-15T09:02:40.300Z,22.40
2022-09-15T09:05:32.118Z,23.20
2022-09-15T09:08:10.399Z,23.60
2022-09-15T09:10:49.531Z,24.00
2022-09-15T09:13:38.544Z,24.10
2022-09-15T09:16:13.860Z,23.80
2022-09-15T09:18:56.056Z,23.40
2022-09-15T09:21:39.969Z,22.90
2022-09-15T09:24:17.441Z,22.30
2022-09-15T09:26:53.118Z,21.60
2022-09-15T09:29:31.422Z,20.90
2022-09-15T09:31:59.150Z,20.50
2022-09-15T09:34:35.341Z,20.40
2022-09-15T09:37:11.157Z,20.40
2022-09-15T09:39:38.465Z,20.60
2022-09-15T09:42:07.039Z,21.00
2022-09-15T09:44:34.625Z,21.40
2022-09-15T09:47:01.972Z,21.80
2022-09-15T09:49:38.543Z,22.10
2022-09-15T09:52:05.736Z,22.60
2022-09-15T09:54:35.422Z,23.30
2022-09-15T09:57:14.908Z,23.90
2022-09-15T09:59:47.416Z,24.40
2022-09-15T10:02:24.779Z,24.50
2022-09-15T10:04:56.118Z,24.60
2022-09-15T10:07:26.155Z,25.10
2022-09-15T10:10:01.045Z,25.50
2022-09-15T10:12:40.382Z,26.10
2022-09-15T10:15:31.714Z,26.00
2022-09-15T10:17:58.944Z,25.50
2022-09-15T10:20:26.124Z,25.10
2022-09-15T10:23:06.547Z,24.90
2022-09-15T10:25:57.490Z,25.00
2022-09-15T10:28:26.123Z,25.00
2022-09-15T10:31:07.128Z,24.60
2022-09-15T10:33:50.634Z,23.80
2022-09-15T10:36:21.215Z,23.40
2022-09-15T10:39:19.692Z,23.20
2022-09-15T10:42:11.826Z,23.40
2022-09-15T10:45:11.017Z,23.70
2022-09-15T10:48:00.266Z,24.20
2022-09-15T10:50:33.834Z,24.70
2022-09-15T10:53:00.963Z,26.90
2022-09-15T10:55:52.413Z,29.30
2022-09-15T10:59:00.463Z,32.80
2022-09-15T11:01:30.386Z,36.50
2022-09-15T11:04:24.885Z,38.50
2022-09-15T11:07:30.275Z,39.70
2022-09-15T11:10:20.282Z,39.30
2022-09-15T11:12:58.749Z,37.60
2022-09-15T11:15:37.736Z,38.00
2022-09-15T11:18:19.683Z,39.50
2022-09-15T11:21:38.102Z,36.30
2022-09-15T11:24:35.610Z,34.80
2022-09-15T11:27:05.255Z,34.50
2022-09-15T11:29:42.418Z,36.20
2022-09-15T11:32:19.360Z,38.30
2022-09-15T11:34:52.863Z,39.70
2022-09-15T11:37:29.552Z,40.30
2022-09-15T11:40:13.640Z,40.40
2022-09-15T11:42:55.734Z,36.00
2022-09-15T11:45:35.158Z,33.70
2022-09-15T11:48:19.411Z,36.60
2022-09-15T11:50:52.134Z,38.60
2022-09-15T11:53:45.325Z,36.30
2022-09-15T11:56:23.390Z,33.40
2022-09-15T11:58:50.718Z,30.70
2022-09-15T12:01:24.433Z,28.40
2022-09-15T12:04:02.542Z,26.50
2022-09-15T12:06:46.338Z,25.20
2022-09-15T12:09:19.365Z,24.30
2022-09-15T12:11:49.085Z,23.80
2022-09-15T12:14:27.295Z,23.60
2022-09-15T12:16:55.421Z,22.90
2022-09-15T12:19:47.325Z,23.10
2022-09-15T12:22:31.868Z,22.70
2022-09-15T12:25:16.689Z,22.30
2022-09-15T12:27:43.837Z,22.30
2022-09-15T12:30:38.656Z,22.70
2022-09-15T12:33:43.089Z,24.10
2022-09-15T12:36:29.856Z,27.40
2022-09-15T12:38:58.389Z,30.50
2022-09-15T12:41:26.282Z,33.20
2022-09-15T12:44:01.522Z,32.90
2022-09-15T12:46:28.906Z,29.70
2022-09-15T12:49:02.203Z,26.90
2022-09-15T12:51:30.149Z,25.10
2022-09-15T12:54:04.426Z,24.20
2022-09-15T12:56:33.575Z,24.00
2022-09-15T12:59:06.946Z,24.00
2022-09-15T13:01:55.447Z,24.00
2022-09-15T13:04:43.544Z,24.70
2022-09-15T13:07:19.699Z,25.60
2022-09-15T13:10:12.831Z,29.20
2022-09-15T13:12:48.037Z,32.20
2022-09-15T13:15:17.469Z,32.90
2022-09-15T13:17:46.226Z,31.50
2022-09-15T13:20:19.289Z,28.80
2022-09-15T13:22:51.508Z,26.60
2022-09-15T13:25:26.098Z,24.40
2022-09-15T13:28:01.167Z,22.80
2022-09-15T13:31:00.699Z,21.30
2022-09-15T13:36:27.422Z,19.80
2022-09-15T13:39:05.286Z,20.00
2022-09-15T13:42:03.210Z,20.40
2022-09-15T13:45:15.553Z,21.00
2022-09-15T13:48:01.106Z,21.30
2022-09-15T13:50:39.230Z,21.50
2022-09-15T13:53:37.161Z,22.10
2022-09-15T13:56:08.850Z,22.50
2022-09-15T14:01:24.051Z,23.60
2022-09-15T14:03:51.182Z,24.70
2022-09-15T14:06:22.784Z,25.10
2022-09-15T14:08:54.386Z,26.70
2022-09-15T14:11:26.665Z,26.60
2022-09-15T14:13:55.013Z,25.40
2022-09-15T14:16:24.325Z,25.10
2022-09-15T14:18:54.018Z,24.70
2022-09-15T14:21:33.064Z,25.30
2022-09-15T14:24:06.027Z,25.40
2022-09-15T14:26:35.760Z,24.70
2022-09-15T14:29:05.714Z,23.90
2022-09-15T14:31:38.905Z,23.00
2022-09-15T14:34:14.468Z,22.50
2022-09-15T14:36:41.857Z,21.90
2022-09-15T14:39:12.079Z,21.50
2022-09-15T14:41:40.147Z,21.50
2022-09-15T14:47:28.222Z,21.00
2022-09-15T14:50:15.190Z,20.60
2022-09-15T14:52:51.748Z,20.60
2022-09-15T14:55:30.630Z,20.60
2022-09-15T14:58:05.202Z,20.50
2022-09-15T15:00:40.587Z,20.30
2022-09-15T15:03:23.487Z,19.90
2022-09-15T15:06:03.036Z,19.50
2022-09-15T15:08:54.517Z,18.80
2022-09-15T15:11:22.477Z,18.60
2022-09-15T15:13:52.256Z,18.30
2022-09-15T15:16:30.954Z,18.00
2022-09-15T15:18:58.636Z,17.80
2022-09-15T15:21:37.733Z,17.90
2022-09-15T15:24:15.278Z,18.10
2022-09-15T15:26:45.202Z,18.10
2022-09-15T15:29:43.034Z,18.10
2022-09-15T15:32:30.853Z,18.10
2022-09-15T15:35:01.711Z,18.30
2022-09-15T15:37:31.902Z,18.40
2022-09-15T15:40:02.123Z,18.40
2022-09-15T15:42:29.790Z,18.40
2022-09-15T15:45:09.255Z,18.40
2022-09-15T15:47:37.372Z,18.40
2022-09-15T15:50:15.920Z,18.40
2022-09-15T15:52:43.937Z,18.40
2022-09-15T15:55:23.051Z,18.50
2022-09-15T15:57:52.734Z,18.40
2022-09-15T16:00:31.799Z,18.40
2022-09-15T16:02:58.944Z,18.20
2022-09-15T16:05:27.539Z,17.80
2022-09-15T16:07:56.522Z,17.30
2022-09-15T16:10:27.975Z,17.20
2022-09-15T16:12:56.015Z,17.20
2022-09-15T16:15:23.208Z,17.30
2022-09-15T16:17:50.374Z,17.40
2022-09-15T16:20:19.516Z,17.50
2022-09-15T16:22:46.781Z,17.60
2022-09-15T16:25:36.664Z,17.70
2022-09-15T16:28:04.838Z,17.90
2022-09-15T16:30:32.632Z,17.90
2022-09-15T16:33:00.084Z,18.10
2022-09-15T16:35:39.839Z,18.10
2022-09-15T16:38:07.761Z,18.20
2022-09-15T16:40:37.001Z,18.20
2022-09-15T16:43:09.050Z,18.30
2022-09-15T16:45:40.603Z,18.30
2022-09-15T16:48:09.314Z,18.20
2022-09-15T16:50:39.798Z,18.20
2022-09-15T16:53:21.462Z,18.40
2022-09-15T16:55:55.536Z,18.80
2022-09-15T16:58:22.873Z,19.60
2022-09-15T17:00:54.481Z,20.20
2022-09-15T17:03:23.867Z,20.60
2022-09-15T17:05:52.928Z,20.70
2022-09-15T17:08:22.366Z,20.30
2022-09-15T17:10:50.315Z,19.80
2022-09-15T17:13:20.345Z,19.20
2022-09-15T17:15:48.701Z,18.80
2022-09-15T17:18:16.736Z,18.50
2022-09-15T17:20:47.060Z,18.10
2022-09-15T17:23:25.806Z,17.90
2022-09-15T17:25:58.980Z,17.60
2022-09-15T17:28:29.173Z,17.50
2022-09-15T17:31:00.394Z,17.40
2022-09-15T17:33:29.625Z,17.40
2022-09-15T17:35:57.321Z,17.40
2022-09-15T17:38:25.062Z,17.40
2022-09-15T17:40:53.058Z,17.20
2022-09-15T17:43:26.152Z,17.00
2022-09-15T17:45:54.013Z,17.30
2022-09-15T17:48:22.255Z,16.80
2022-09-15T17:50:50.066Z,16.70
2022-09-15T17:53:27.994Z,16.70
2022-09-15T17:55:57.275Z,16.50
2022-09-15T17:58:26.561Z,16.20
2022-09-15T18:00:54.353Z,16.10
2022-09-15T18:03:27.598Z,15.90
2022-09-15T18:06:00.119Z,15.60
2022-09-15T18:08:27.749Z,15.40
2022-09-15T18:10:55.444Z,15.20
2022-09-15T18:13:26.391Z,15.00
2022-09-15T18:15:56.654Z,14.80
2022-09-15T18:18:26.547Z,14.50
2022-09-15T18:20:56.628Z,14.40
2022-09-15T18:23:26.571Z,14.40
2022-09-15T18:25:53.942Z,14.30
2022-09-15T18:28:21.175Z,14.30
2022-09-15T18:30:49.960Z,14.40
2022-09-15T18:33:20.181Z,14.30
2022-09-15T18:35:51.912Z,14.40
2022-09-15T18:38:19.447Z,14.40
2022-09-15T18:40:49.252Z,14.50
2022-09-15T18:43:17.259Z,14.50
2022-09-15T18:45:44.481Z,14.60
2022-09-15T18:48:13.168Z,14.60
2022-09-15T18:50:41.482Z,14.60
2022-09-15T18:53:09.110Z,14.70
2022-09-15T18:55:36.304Z,14.70
2022-09-15T18:58:03.547Z,14.80
2022-09-15T19:00:31.699Z,14.80
2022-09-15T19:03:00.536Z,14.80
2022-09-15T19:05:29.169Z,14.80
2022-09-15T19:07:56.747Z,14.80
2022-09-15T19:10:26.466Z,14.80
2022-09-15T19:12:53.945Z,15.00
2022-09-15T19:15:23.767Z,15.10
2022-09-15T19:17:51.758Z,15.10
2022-09-15T19:20:19.163Z,15.20
2022-09-15T19:22:47.343Z,15.10
2022-09-15T19:25:14.512Z,15.00
2022-09-15T19:27:41.737Z,14.90
2022-09-15T19:30:10.467Z,14.70
2022-09-15T19:32:38.817Z,14.60
2022-09-15T19:35:06.889Z,14.40
2022-09-15T19:37:39.871Z,14.30
2022-09-15T19:40:09.556Z,14.10
2022-09-15T19:42:38.460Z,14.10
2022-09-15T19:45:07.394Z,14.00
2022-09-15T19:47:35.281Z,14.00
2022-09-15T19:50:03.414Z,13.90
2022-09-15T19:52:30.594Z,14.00
2022-09-15T19:54:57.722Z,14.00
2022-09-15T19:57:24.921Z,14.10
2022-09-15T19:59:52.033Z,14.10
2022-09-15T20:02:19.885Z,14.10
2022-09-15T20:04:47.598Z,14.10
2022-09-15T20:07:14.737Z,14.00
2022-09-15T20:09:42.116Z,13.90
2022-09-15T20:12:09.417Z,13.80
2022-09-15T20:14:36.593Z,13.80
2022-09-15T20:17:04.059Z,13.80
2022-09-15T20:19:31.318Z,13.70
2022-09-15T20:21:58.677Z,13.70
2022-09-15T20:24:25.966Z,13.70
2022-09-15T20:26:53.413Z,13.70
2022-09-15T20:29:21.330Z,13.70
2022-09-15T20:31:48.515Z,13.70
2022-09-15T20:34:16.662Z,13.80
2022-09-15T20:36:44.421Z,13.80
2022-09-15T20:39:14.487Z,13.90
2022-09-15T20:41:44.970Z,13.90
2022-09-15T20:44:14.671Z,14.00
2022-09-15T20:46:41.852Z,14.00
2022-09-15T20:49:10.189Z,14.10
2022-09-15T20:51:37.341Z,14.20
2022-09-15T20:54:05.073Z,14.20
2022-09-15T20:56:34.784Z,14.20
2022-09-15T20:59:03.115Z,14.20
2022-09-15T21:01:36.650Z,14.20
2022-09-15T21:04:05.250Z,14.30
2022-09-15T21:06:33.130Z,14.30
2022-09-15T21:09:00.871Z,14.40
2022-09-15T21:11:29.049Z,14.50
2022-09-15T21:13:57.470Z,14.60
2022-09-15T21:16:27.954Z,14.60
2022-09-15T21:18:56.823Z,14.60
2022-09-15T21:21:26.616Z,14.70
2022-09-15T21:23:56.161Z,14.70
2022-09-15T21:26:28.450Z,14.70
2022-09-15T21:28:57.232Z,14.70
2022-09-15T21:31:32.914Z,14.70
2022-09-15T21:34:00.497Z,14.70
2022-09-15T21:36:29.901Z,14.70
2022-09-15T21:38:58.599Z,14.70
2022-09-15T21:41:29.832Z,14.70
2022-09-15T21:43:58.693Z,14.70
2022-09-15T21:46:28.434Z,14.70
2022-09-15T21:48:57.520Z,14.70
2022-09-15T21:51:26.049Z,14.70
2022-09-15T21:53:54.898Z,14.70
2022-09-15T21:56:23.146Z,14.70
2022-09-15T21:58:50.269Z,14.70
2022-09-15T22:01:29.122Z,14.70
2022-09-15T22:04:01.671Z,14.70
2022-09-15T22:06:34.217Z,14.70
2022-09-15T22:09:06.838Z,14.70
2022-09-15T22:11:35.066Z,14.60
2022-09-15T22:14:04.379Z,14.60
2022-09-15T22:16:32.237Z,14.60
2022-09-15T22:18:59.803Z,14.50
2022-09-15T22:21:30.480Z,14.50
2022-09-15T22:24:04.266Z,14.50
2022-09-15T22:26:34.460Z,14.50
2022-09-15T22:29:02.006Z,14.50
2022-09-15T22:31:29.720Z,14.60
2022-09-15T22:33:57.034Z,14.70
2022-09-15T22:36:29.274Z,14.80
2022-09-15T22:39:04.693Z,14.70
2022-09-15T22:41:37.491Z,14.50
2022-09-15T22:44:05.902Z,14.40
2022-09-15T22:46:33.616Z,14.20
2022-09-15T22:49:00.883Z,14.10
2022-09-15T22:51:28.102Z,14.10
2022-09-15T22:53:56.839Z,13.90
2022-09-15T22:56:25.868Z,13.90
2022-09-15T22:58:53.173Z,13.80
2022-09-15T23:01:26.356Z,13.80
2022-09-15T23:03:58.697Z,13.80
2022-09-15T23:06:28.498Z,13.80
2022-09-15T23:08:58.113Z,13.90
2022-09-15T23:11:27.018Z,13.90
2022-09-15T23:13:55.518Z,13.90
2022-09-15T23:16:24.098Z,14.00
2022-09-15T23:18:52.585Z,14.00
2022-09-15T23:21:20.471Z,14.00
2022-09-15T23:23:48.908Z,14.10
2022-09-15T23:26:19.136Z,14.00
2022-09-15T23:28:46.849Z,14.00
2022-09-15T23:31:14.406Z,13.90
2022-09-15T23:33:42.258Z,13.80
2022-09-15T23:36:15.103Z,13.80
2022-09-15T23:38:44.526Z,13.70
2022-09-15T23:41:13.447Z,13.70
2022-09-15T23:43:41.256Z,13.70
2022-09-15T23:46:08.581Z,13.70
2022-09-15T23:48:35.922Z,13.70
2022-09-15T23:51:04.608Z,13.60
2022-09-15T23:53:31.822Z,13.70
2022-09-15T23:55:59.108Z,13.60
2022-09-15T23:58:26.404Z,13.60
